createdAt,value
2022-11-05T00:01:08.752Z,100372.66
2022-11-05T00:03:54.021Z,100388.66
2022-11-05T00:06:39.145Z,100352.03
2022-11-05T00:09:26.934Z,100354.81
2022-11-05T00:12:19.261Z,100349.84
2022-11-05T00:15:04.427Z,100367.19
2022-11-05T00:17:31.229Z,100373.44
2022-11-05T00:19:57.888Z,100384.66
2022-11-05T00:22:43.460Z,100357.41
2022-11-05T00:25:19.201Z,100388.25
2022-11-05T00:27:47.597Z,100356.63
2022-11-05T00:30:18.275Z,100351.28
2022-11-05T00:32:46.687Z,100375.06
2022-11-05T00:35:14.090Z,100366.31
2022-11-05T00:37:45.614Z,100353.59
2022-11-05T00:40:15.662Z,100349.25
2022-11-05T00:43:02.293Z,100362.03
2022-11-05T00:45:30.653Z,100367.19
2022-11-05T00:48:16.205Z,100370.63
2022-11-05T00:50:43.125Z,100362.75
2022-11-05T00:53:10.059Z,100362.75
2022-11-05T00:55:39.844Z,100337.00
2022-11-05T00:58:12.223Z,100348.34
2022-11-05T01:00:41.237Z,100329.72
2022-11-05T01:03:11.224Z,100353.47
2022-11-05T01:05:43.233Z,100297.38
2022-11-05T01:08:11.162Z,100334.09
2022-11-05T01:10:45.988Z,100369.72
2022-11-05T01:13:13.647Z,100366.09
2022-11-05T01:15:41.843Z,100353.91
2022-11-05T01:18:08.958Z,100319.50
2022-11-05T01:20:35.724Z,100352.66
2022-11-05T01:23:02.394Z,100327.00
2022-11-05T01:25:29.216Z,100341.72
2022-11-05T01:27:56.135Z,100319.66
2022-11-05T01:30:23.371Z,100345.16
2022-11-05T01:32:50.499Z,100327.47
2022-11-05T01:35:18.188Z,100346.88
2022-11-05T01:37:45.262Z,100338.31
2022-11-05T01:40:18.459Z,100345.09
2022-11-05T01:42:45.267Z,100350.22
2022-11-05T01:45:26.862Z,100319.38
2022-11-05T01:47:53.794Z,100336.69
2022-11-05T01:50:42.391Z,100338.38
2022-11-05T01:53:31.777Z,100307.56
2022-11-05T01:56:02.006Z,100331.38
2022-11-05T01:58:34.310Z,100312.88
2022-11-05T02:01:01.396Z,100323.88
2022-11-05T02:03:30.254Z,100326.56
2022-11-05T02:06:01.094Z,100320.59
2022-11-05T02:08:52.610Z,100333.09
2022-11-05T02:11:20.318Z,100333.53
2022-11-05T02:13:48.875Z,100321.69
2022-11-05T02:16:18.443Z,100329.38
2022-11-05T02:19:20.065Z,100294.19
2022-11-05T02:21:56.679Z,100315.34
2022-11-05T02:24:50.757Z,100315.41
2022-11-05T02:27:40.195Z,100318.03
2022-11-05T02:30:22.203Z,100315.28
2022-11-05T02:33:04.237Z,100313.78
2022-11-05T02:35:56.968Z,100311.34
2022-11-05T02:38:54.464Z,100287.63
2022-11-05T02:41:30.726Z,100323.94
2022-11-05T02:44:04.108Z,100320.75
2022-11-05T02:46:30.718Z,100320.88
2022-11-05T02:49:17.913Z,100300.38
2022-11-05T02:51:51.443Z,100318.41
2022-11-05T02:54:26.995Z,100306.31
2022-11-05T02:56:56.913Z,100311.63
2022-11-05T02:59:23.783Z,100321.81
2022-11-05T03:01:52.193Z,100275.78
2022-11-05T03:04:22.441Z,100297.84
2022-11-05T03:07:24.700Z,100319.41
2022-11-05T03:10:21.855Z,100320.28
2022-11-05T03:13:04.466Z,100314.38
2022-11-05T03:15:52.342Z,100305.78
2022-11-05T03:18:52.003Z,100303.88
2022-11-05T03:21:26.465Z,100279.16
2022-11-05T03:24:02.575Z,100278.44
2022-11-05T03:26:40.777Z,100275.91
2022-11-05T03:29:14.647Z,100281.31
2022-11-05T03:31:43.391Z,100269.88
2022-11-05T03:34:15.080Z,100259.59
2022-11-05T03:36:47.198Z,100218.47
2022-11-05T03:39:20.878Z,100221.81
2022-11-05T03:41:51.305Z,100197.94
2022-11-05T03:44:25.130Z,100254.13
2022-11-05T03:46:55.528Z,100212.47
2022-11-05T03:49:27.256Z,100220.19
2022-11-05T03:51:53.885Z,100255.50
2022-11-05T03:54:20.972Z,100186.59
2022-11-05T03:57:00.138Z,100246.41
2022-11-05T03:59:28.215Z,100171.19
2022-11-05T04:01:55.130Z,100215.88
2022-11-05T04:04:21.928Z,100250.06
2022-11-05T04:07:07.545Z,100223.47
2022-11-05T04:09:52.522Z,100171.44
2022-11-05T04:12:37.835Z,100238.09
2022-11-05T04:15:04.853Z,100222.16
2022-11-05T04:17:31.896Z,100232.31
2022-11-05T04:20:17.105Z,100234.00
2022-11-05T04:23:02.310Z,100222.00
2022-11-05T04:25:29.066Z,100194.56
2022-11-05T04:28:00.560Z,100243.69
2022-11-05T04:30:27.775Z,100209.13
2022-11-05T04:33:27.275Z,100228.38
2022-11-05T04:35:54.140Z,100230.25
2022-11-05T04:38:20.808Z,100229.44
2022-11-05T04:40:48.317Z,100240.75
2022-11-05T04:43:18.817Z,100225.38
2022-11-05T04:45:46.257Z,100230.25
2022-11-05T04:48:13.141Z,100236.47
2022-11-05T04:50:39.844Z,100216.56
2022-11-05T04:53:06.533Z,100164.38
2022-11-05T04:55:33.233Z,100180.72
2022-11-05T04:57:59.947Z,100143.09
2022-11-05T05:00:26.750Z,100185.94
2022-11-05T05:02:53.638Z,100220.22
2022-11-05T05:05:21.499Z,100222.97
2022-11-05T05:07:48.259Z,100211.72
2022-11-05T05:10:14.933Z,100202.97
2022-11-05T05:12:41.721Z,100166.19
2022-11-05T05:15:09.666Z,100177.59
2022-11-05T05:17:36.342Z,100203.06
2022-11-05T05:20:21.444Z,100199.56
2022-11-05T05:22:53.301Z,100201.34
2022-11-05T05:25:20.236Z,100210.88
2022-11-05T05:27:46.977Z,100186.22
2022-11-05T05:30:13.948Z,100218.69
2022-11-05T05:32:40.654Z,100210.00
2022-11-05T05:35:07.638Z,100204.94
2022-11-05T05:37:34.299Z,100200.63
2022-11-05T05:40:01.000Z,100169.59
2022-11-05T05:42:27.897Z,100120.72
2022-11-05T05:44:54.628Z,100125.63
2022-11-05T05:47:21.285Z,100137.63
2022-11-05T05:49:51.566Z,100152.03
2022-11-05T05:52:18.232Z,100140.84
2022-11-05T05:54:44.893Z,100161.41
2022-11-05T05:57:11.606Z,100145.41
2022-11-05T05:59:38.304Z,100139.41
2022-11-05T06:02:05.102Z,100114.88
2022-11-05T06:04:31.957Z,100136.31
2022-11-05T06:06:58.715Z,100151.47
2022-11-05T06:09:25.473Z,100085.34
2022-11-05T06:11:52.132Z,100111.09
2022-11-05T06:14:18.761Z,100133.72
2022-11-05T06:16:45.406Z,100145.75
2022-11-05T06:19:12.349Z,100137.78
2022-11-05T06:21:39.074Z,100122.22
2022-11-05T06:24:05.994Z,100144.28
2022-11-05T06:26:32.673Z,100120.16
2022-11-05T06:28:59.438Z,100110.50
2022-11-05T06:31:26.219Z,100106.28
2022-11-05T06:33:52.932Z,100097.81
2022-11-05T06:36:20.554Z,100124.88
2022-11-05T06:38:47.755Z,100116.91
2022-11-05T06:41:14.705Z,100136.56
2022-11-05T06:43:42.111Z,100086.31
2022-11-05T06:46:10.282Z,100117.94
2022-11-05T06:48:37.229Z,100078.38
2022-11-05T06:51:04.186Z,100071.41
2022-11-05T06:53:31.757Z,100111.53
2022-11-05T06:56:02.342Z,100110.91
2022-11-05T06:58:29.550Z,100126.78
2022-11-05T07:01:00.401Z,100106.13
2022-11-05T07:03:27.136Z,100111.34
2022-11-05T07:05:54.383Z,100117.22
2022-11-05T07:08:21.037Z,100092.03
2022-11-05T07:10:48.585Z,100122.69
2022-11-05T07:13:15.701Z,100105.28
2022-11-05T07:15:42.932Z,100092.06
2022-11-05T07:18:09.624Z,100074.69
2022-11-05T07:20:36.382Z,100083.81
2022-11-05T07:23:08.736Z,100085.47
2022-11-05T07:25:36.223Z,100077.19
2022-11-05T07:28:03.944Z,100072.19
2022-11-05T07:30:31.710Z,100050.19
2022-11-05T07:32:58.472Z,100077.81
2022-11-05T07:35:25.945Z,100039.75
2022-11-05T07:37:54.756Z,100051.91
2022-11-05T07:40:23.403Z,100077.22
2022-11-05T07:42:58.673Z,100096.75
2022-11-05T07:45:26.900Z,100080.94
2022-11-05T07:47:59.582Z,100077.22
2022-11-05T07:50:29.434Z,100072.63
2022-11-05T07:53:12.115Z,100049.50
2022-11-05T07:55:41.490Z,100072.19
2022-11-05T07:58:08.700Z,100056.56
2022-11-05T08:00:35.479Z,100029.03
2022-11-05T08:03:13.892Z,100050.72
2022-11-05T08:05:44.725Z,100057.59
2022-11-05T08:08:13.949Z,100053.75
2022-11-05T08:10:41.497Z,100012.38
2022-11-05T08:13:09.125Z,100046.38
2022-11-05T08:15:36.606Z,100050.41
2022-11-05T08:18:10.781Z,100041.72
2022-11-05T08:20:39.497Z,100028.56
2022-11-05T08:23:06.268Z,100017.75
2022-11-05T08:25:33.263Z,100028.38
2022-11-05T08:28:04.349Z,100045.72
2022-11-05T08:30:32.429Z,100017.84
2022-11-05T08:33:04.903Z,100046.72
2022-11-05T08:35:32.317Z,100046.91
2022-11-05T08:38:00.859Z,100011.16
2022-11-05T08:40:27.944Z,100027.00
2022-11-05T08:42:57.989Z,100002.59
2022-11-05T08:45:26.092Z,99992.41
2022-11-05T08:48:03.127Z,99971.03
2022-11-05T08:50:30.222Z,99983.34
2022-11-05T08:52:57.348Z,100013.09
2022-11-05T08:55:24.385Z,99967.09
2022-11-05T08:57:59.282Z,99942.06
2022-11-05T09:00:27.518Z,99956.09
2022-11-05T09:02:54.717Z,99970.84
2022-11-05T09:05:21.593Z,99966.25
2022-11-05T09:07:48.574Z,99933.50
2022-11-05T09:10:16.073Z,99929.25
2022-11-05T09:18:15.636Z,99938.44
2022-11-05T09:20:43.423Z,99932.78
2022-11-05T09:23:16.336Z,99935.06
2022-11-05T09:25:54.611Z,99951.44
2022-11-05T09:33:51.006Z,99879.75
2022-11-05T09:39:05.909Z,99946.59
2022-11-05T11:46:55.647Z,99796.06
2022-11-05T11:49:59.298Z,99786.84
2022-11-05T12:00:52.927Z,99763.72
2022-11-05T13:02:31.514Z,99687.06
2022-11-05T13:05:07.045Z,99679.56
2022-11-05T13:07:39.171Z,99658.50
2022-11-05T13:10:28.137Z,99663.22
2022-11-05T13:13:16.940Z,99664.50
2022-11-05T13:16:16.157Z,99662.97
2022-11-05T13:18:47.348Z,99649.28
2022-11-05T13:21:17.055Z,99645.34
2022-11-05T13:23:56.018Z,99654.38
2022-11-05T13:26:38.766Z,99647.59
2022-11-05T13:29:15.863Z,99635.84
2022-11-05T13:31:53.382Z,99624.91
2022-11-05T13:34:20.140Z,99646.59
2022-11-05T13:37:17.256Z,99616.19
2022-11-05T13:39:58.698Z,99620.81
2022-11-05T13:42:43.973Z,99595.50
2022-11-05T13:45:38.980Z,99578.00
2022-11-05T13:48:20.881Z,99575.03
2022-11-05T13:50:51.976Z,99568.97
2022-11-05T13:53:39.860Z,99588.19
2022-11-05T13:56:28.652Z,99596.97
2022-11-05T13:59:11.489Z,99590.88
2022-11-05T14:01:56.882Z,99573.50
2022-11-05T14:04:42.095Z,99575.75
2022-11-05T14:07:29.745Z,99570.69
2022-11-05T14:10:05.700Z,99552.13
2022-11-05T14:12:36.828Z,99551.97
2022-11-05T14:15:17.907Z,99578.63
2022-11-05T14:18:06.532Z,99585.78
2022-11-05T14:20:33.226Z,99541.53
2022-11-05T14:23:21.308Z,99583.47
2022-11-05T14:25:52.742Z,99575.84
2022-11-05T14:28:44.131Z,99536.38
2022-11-05T14:31:19.987Z,99521.16
2022-11-05T14:34:03.156Z,99544.69
2022-11-05T14:36:40.690Z,99585.50
2022-11-05T14:39:19.802Z,99588.34
2022-11-05T14:42:27.343Z,99597.44
2022-11-05T14:45:21.578Z,99580.19
2022-11-05T14:47:58.032Z,99585.44
2022-11-05T14:50:31.384Z,99600.06
2022-11-05T14:53:03.511Z,99578.91
2022-11-05T14:55:40.670Z,99557.47
2022-11-05T15:04:38.419Z,99603.44
2022-11-05T15:07:05.967Z,99611.63
2022-11-05T15:09:47.381Z,99614.81
2022-11-05T15:12:41.803Z,99597.47
2022-11-05T15:15:23.417Z,99592.31
2022-11-05T15:18:09.225Z,99585.84
2022-11-05T15:20:58.296Z,99569.34
2022-11-05T15:23:30.492Z,99547.25
2022-11-05T15:26:06.766Z,99571.03
2022-11-05T15:28:54.371Z,99542.53
2022-11-05T15:31:30.013Z,99564.59
2022-11-05T15:34:26.083Z,99544.88
2022-11-05T15:36:59.704Z,99576.09
2022-11-05T15:45:21.070Z,99530.47
2022-11-05T15:47:48.125Z,99486.25
2022-11-05T15:50:16.373Z,99474.00
2022-11-05T15:52:54.774Z,99500.69
2022-11-05T15:55:24.717Z,99541.03
2022-11-05T15:57:59.385Z,99571.94
2022-11-05T16:03:36.591Z,99574.59
2022-11-05T16:25:32.255Z,99566.91
2022-11-05T17:09:37.202Z,99548.84
2022-11-05T17:17:28.369Z,99568.00
2022-11-05T17:36:09.753Z,99559.59
2022-11-05T17:44:12.088Z,99546.41
2022-11-05T17:46:46.162Z,99540.25
2022-11-05T18:05:23.534Z,99472.91
2022-11-05T18:07:54.434Z,99531.72
2022-11-05T18:10:22.503Z,99458.53
2022-11-05T18:12:50.588Z,99547.22
2022-11-05T18:23:21.369Z,99583.78
2022-11-05T18:25:48.873Z,99595.25
2022-11-05T18:28:19.023Z,99597.50
2022-11-05T18:30:45.754Z,99600.28
2022-11-05T18:35:53.380Z,99614.91
2022-11-05T18:38:20.303Z,99581.25
2022-11-05T18:40:47.153Z,99622.34
2022-11-05T18:43:14.774Z,99578.59
2022-11-05T18:45:41.829Z,99635.03
2022-11-05T18:48:08.716Z,99572.59
2022-11-05T18:50:35.733Z,99593.19
2022-11-05T18:53:03.932Z,99631.13
2022-11-05T18:55:33.988Z,99634.91
2022-11-05T18:58:00.918Z,99645.19
2022-11-05T19:00:28.067Z,99645.06
2022-11-05T19:02:55.115Z,99584.78
2022-11-05T19:05:28.896Z,99589.19
2022-11-05T19:29:35.093Z,99576.00
2022-11-05T19:32:02.153Z,99620.22
2022-11-05T19:34:29.451Z,99608.50
2022-11-05T19:36:56.297Z,99567.06
2022-11-05T19:39:23.057Z,99600.91
2022-11-05T19:41:57.695Z,99568.66
2022-11-05T19:44:27.514Z,99644.81
2022-11-05T19:46:54.276Z,99577.97
2022-11-05T19:49:21.034Z,99628.34
2022-11-05T19:51:48.784Z,99610.63
2022-11-05T19:56:56.591Z,99571.16
2022-11-05T20:02:13.355Z,99625.38
2022-11-05T20:04:48.001Z,99601.25
2022-11-05T20:07:24.534Z,99640.97
2022-11-05T20:15:14.109Z,99553.03
2022-11-05T20:17:41.396Z,99582.84
2022-11-05T20:25:39.203Z,99566.38
2022-11-05T20:44:25.192Z,99636.78
2022-11-05T21:03:00.175Z,99615.78
2022-11-05T21:05:31.261Z,99631.75
2022-11-05T21:08:00.962Z,99650.47
2022-11-05T21:10:27.746Z,99632.63
2022-11-05T21:12:54.489Z,99652.75
2022-11-05T21:15:23.207Z,99670.31
2022-11-05T21:17:50.788Z,99651.25
2022-11-05T21:20:17.888Z,99687.53
2022-11-05T21:22:45.574Z,99651.13
2022-11-05T21:25:12.739Z,99682.72
2022-11-05T21:27:43.666Z,99683.03
2022-11-05T21:30:11.171Z,99683.63
2022-11-05T21:32:38.056Z,99693.91
2022-11-05T21:35:05.270Z,99687.09
2022-11-05T21:37:32.531Z,99698.56
2022-11-05T21:39:59.185Z,99693.78
2022-11-05T21:42:25.840Z,99693.44
2022-11-05T21:44:57.685Z,99663.28
2022-11-05T21:47:29.018Z,99694.31
2022-11-05T21:49:55.671Z,99682.41
2022-11-05T21:52:41.170Z,99685.75
2022-11-05T21:55:41.640Z,99692.97
2022-11-05T21:58:35.626Z,99698.03
2022-11-05T22:01:02.808Z,99702.56
2022-11-05T22:03:29.741Z,99700.91
2022-11-05T22:05:56.817Z,99697.09
2022-11-05T22:08:23.556Z,99698.94
2022-11-05T22:10:50.176Z,99698.22
2022-11-05T22:13:16.870Z,99708.38
2022-11-05T22:15:43.457Z,99699.09
2022-11-05T22:18:10.405Z,99697.59
2022-11-05T22:20:39.700Z,99692.56
2022-11-05T22:23:10.927Z,99696.91
2022-11-05T22:25:38.261Z,99714.44
2022-11-05T22:28:05.072Z,99701.97
2022-11-05T22:30:35.633Z,99716.31
2022-11-05T22:33:02.835Z,99691.28
2022-11-05T22:35:29.721Z,99679.34
2022-11-05T22:37:56.374Z,99674.03
2022-11-05T22:40:24.133Z,99686.03
2022-11-05T22:42:51.178Z,99687.19
2022-11-05T22:45:18.452Z,99666.94
2022-11-05T22:47:45.062Z,99680.28
2022-11-05T22:50:11.976Z,99665.81
2022-11-05T22:52:38.891Z,99664.97
2022-11-05T22:55:06.350Z,99685.66
2022-11-05T22:57:33.457Z,99680.44
2022-11-05T23:00:00.261Z,99674.56
2022-11-05T23:02:27.162Z,99690.72
2022-11-05T23:04:54.031Z,99676.44
2022-11-05T23:07:39.493Z,99673.28
2022-11-05T23:10:25.079Z,99671.94
2022-11-05T23:12:53.341Z,99678.72
2022-11-05T23:15:38.700Z,99652.06
2022-11-05T23:18:23.771Z,99648.03
2022-11-05T23:21:08.970Z,99680.09
2022-11-05T23:23:54.173Z,99671.69
2022-11-05T23:26:39.524Z,99684.19
2022-11-05T23:29:06.218Z,99685.28
2022-11-05T23:31:51.712Z,99603.41
2022-11-05T23:34:18.429Z,99666.16
2022-11-05T23:37:03.723Z,99624.69
2022-11-05T23:39:30.440Z,99622.81
2022-11-05T23:42:15.584Z,99663.53
2022-11-05T23:45:02.468Z,99651.72
2022-11-05T23:47:48.032Z,99640.00
2022-11-05T23:50:14.740Z,99647.25
2022-11-05T23:52:44.045Z,99663.28
2022-11-05T23:55:11.214Z,99657.00
2022-11-05T23:57:38.315Z,99652.13
